createdAt,value
2023-05-10T00:00:47.409Z,245.55
2023-05-10T00:01:47.412Z,244.39
2023-05-10T00:02:47.486Z,244.72
2023-05-10T00:03:47.466Z,246.01
2023-05-10T00:04:47.386Z,244.93
2023-05-10T00:05:47.379Z,243.87
2023-05-10T00:06:47.362Z,244.22
2023-05-10T00:07:47.386Z,242.87
2023-05-10T00:08:47.362Z,242.22
2023-05-10T00:09:47.354Z,242.96
2023-05-10T00:10:47.354Z,243.76
2023-05-10T00:11:47.342Z,244.53
2023-05-10T00:12:47.356Z,244.35
2023-05-10T00:13:47.342Z,245.00
2023-05-10T00:14:47.336Z,244.33
2023-05-10T00:15:47.338Z,243.47
2023-05-10T00:16:47.456Z,242.87
2023-05-10T00:17:47.353Z,242.90
2023-05-10T00:18:47.339Z,242.10
2023-05-10T00:19:47.340Z,242.57
2023-05-10T00:20:47.351Z,242.32
2023-05-10T00:21:47.316Z,242.44
2023-05-10T00:22:47.314Z,242.52
2023-05-10T00:23:47.312Z,242.33
2023-05-10T00:24:47.312Z,243.82
2023-05-10T00:25:47.303Z,243.62
2023-05-10T00:26:47.301Z,243.00
2023-05-10T00:27:47.297Z,243.67
2023-05-10T00:28:47.324Z,244.07
2023-05-10T00:29:47.297Z,242.60
2023-05-10T00:30:47.305Z,242.76
2023-05-10T00:31:47.323Z,242.53
2023-05-10T00:32:47.312Z,243.00
2023-05-10T00:33:47.301Z,243.09
2023-05-10T00:34:47.309Z,244.75
2023-05-10T00:35:47.301Z,245.34
2023-05-10T00:36:47.309Z,243.19
2023-05-10T00:37:47.295Z,243.49
2023-05-10T00:38:47.299Z,243.05
2023-05-10T00:39:47.296Z,243.18
2023-05-10T00:40:47.328Z,244.38
2023-05-10T00:41:47.299Z,242.67
2023-05-10T00:42:47.303Z,243.29
2023-05-10T00:43:47.318Z,242.78
2023-05-10T00:44:47.310Z,243.79
2023-05-10T00:45:47.338Z,244.46
2023-05-10T00:46:47.292Z,243.54
2023-05-10T00:47:47.458Z,242.31
2023-05-10T00:48:47.294Z,242.55
2023-05-10T00:49:47.318Z,240.62
2023-05-10T00:50:47.300Z,240.56
2023-05-10T00:51:47.300Z,239.67
2023-05-10T00:52:47.308Z,239.92
2023-05-10T00:53:47.293Z,239.59
2023-05-10T00:54:47.296Z,239.73
2023-05-10T00:55:47.295Z,238.70
2023-05-10T00:56:47.279Z,238.99
2023-05-10T00:57:47.282Z,238.40
2023-05-10T00:58:47.301Z,238.15
2023-05-10T00:59:47.282Z,237.65
2023-05-10T01:00:47.294Z,237.96
2023-05-10T01:01:47.462Z,238.59
2023-05-10T01:02:47.503Z,239.72
2023-05-10T01:03:47.287Z,239.12
2023-05-10T01:04:47.373Z,239.23
2023-05-10T01:05:47.313Z,238.72
2023-05-10T01:06:47.307Z,240.55
2023-05-10T01:07:47.298Z,240.69
2023-05-10T01:08:47.306Z,240.62
2023-05-10T01:09:47.305Z,239.80
2023-05-10T01:10:47.312Z,240.60
2023-05-10T01:11:47.324Z,240.30
2023-05-10T01:12:47.363Z,240.29
2023-05-10T01:13:47.333Z,240.14
2023-05-10T01:14:47.324Z,239.06
2023-05-10T01:15:47.345Z,240.53
2023-05-10T01:16:47.307Z,239.57
2023-05-10T01:17:47.336Z,239.62
2023-05-10T01:18:47.326Z,240.29
2023-05-10T01:19:47.321Z,240.00
2023-05-10T01:20:47.298Z,241.11
2023-05-10T01:21:47.296Z,242.00
2023-05-10T01:22:47.293Z,243.39
2023-05-10T01:23:47.299Z,243.65
2023-05-10T01:24:47.323Z,244.20
2023-05-10T01:25:47.322Z,245.73
2023-05-10T01:26:47.312Z,246.70
2023-05-10T01:27:47.312Z,246.69
2023-05-10T01:28:47.324Z,247.69
2023-05-10T01:29:47.341Z,247.15
2023-05-10T01:30:47.324Z,247.55
2023-05-10T01:31:47.394Z,245.40
2023-05-10T01:32:47.361Z,243.89
2023-05-10T01:33:47.327Z,241.21
2023-05-10T01:34:47.355Z,240.95
2023-05-10T01:35:47.432Z,238.60
2023-05-10T01:36:47.457Z,237.66
2023-05-10T01:37:47.492Z,237.92
2023-05-10T01:38:47.487Z,236.02
2023-05-10T01:39:47.469Z,236.34
2023-05-10T01:40:47.489Z,235.64
2023-05-10T01:41:47.473Z,235.05
2023-05-10T01:42:47.477Z,235.55
2023-05-10T01:43:47.478Z,234.39
2023-05-10T01:44:47.480Z,232.43
2023-05-10T01:45:47.498Z,231.82
2023-05-10T01:46:47.572Z,230.86
2023-05-10T01:47:47.678Z,230.68
2023-05-10T01:48:47.642Z,231.56
2023-05-10T01:49:47.697Z,229.79
2023-05-10T01:50:47.735Z,230.45
2023-05-10T01:51:47.792Z,231.82
2023-05-10T01:52:47.833Z,232.54
2023-05-10T01:53:47.908Z,232.84
2023-05-10T01:54:47.934Z,233.74
2023-05-10T01:55:47.978Z,231.17
2023-05-10T01:56:48.006Z,232.21
2023-05-10T01:57:47.979Z,231.65
2023-05-10T01:58:47.988Z,230.26
2023-05-10T01:59:47.988Z,230.85
2023-05-10T02:00:48.040Z,230.53
2023-05-10T02:01:48.007Z,231.39
2023-05-10T02:02:48.014Z,231.64
2023-05-10T02:03:48.039Z,231.44
2023-05-10T02:04:48.021Z,233.00
2023-05-10T02:05:48.029Z,230.32
2023-05-10T02:06:48.037Z,231.80
2023-05-10T02:07:48.039Z,229.74
2023-05-10T02:08:48.048Z,230.25
2023-05-10T02:09:48.040Z,230.21
2023-05-10T02:10:48.050Z,232.02
2023-05-10T02:11:48.041Z,233.10
2023-05-10T02:12:48.065Z,232.89
2023-05-10T02:13:48.063Z,232.31
2023-05-10T02:14:48.049Z,233.50
2023-05-10T02:15:48.052Z,234.02
2023-05-10T02:16:48.092Z,233.25
2023-05-10T02:17:48.121Z,232.73
2023-05-10T02:18:48.077Z,230.71
2023-05-10T02:19:48.097Z,229.41
2023-05-10T02:20:48.104Z,227.76
2023-05-10T02:21:48.112Z,227.79
2023-05-10T02:22:48.113Z,227.67
2023-05-10T02:23:48.167Z,227.36
2023-05-10T02:24:48.146Z,225.02
2023-05-10T02:25:48.126Z,225.35
2023-05-10T02:26:48.147Z,224.77
2023-05-10T02:27:48.133Z,223.19
2023-05-10T02:28:48.149Z,223.75
2023-05-10T02:29:48.139Z,222.80
2023-05-10T02:30:48.146Z,223.50
2023-05-10T02:31:48.180Z,224.25
2023-05-10T02:32:48.242Z,225.27
2023-05-10T02:33:48.182Z,223.50
2023-05-10T02:34:48.170Z,223.34
2023-05-10T02:35:48.207Z,223.50
2023-05-10T02:36:48.196Z,224.11
2023-05-10T02:37:48.210Z,224.14
2023-05-10T02:38:48.215Z,225.05
2023-05-10T02:39:48.221Z,223.26
2023-05-10T02:40:48.219Z,223.84
2023-05-10T02:41:48.238Z,224.69
2023-05-10T02:42:48.272Z,223.87
2023-05-10T02:43:48.255Z,223.00
2023-05-10T02:44:48.265Z,221.65
2023-05-10T02:45:48.302Z,223.35
2023-05-10T02:46:48.266Z,220.68
2023-05-10T02:47:48.297Z,221.97
2023-05-10T02:48:48.305Z,221.26
2023-05-10T02:49:48.288Z,222.42
2023-05-10T02:50:48.295Z,220.53
2023-05-10T02:51:48.318Z,220.85
2023-05-10T02:52:48.310Z,220.16
2023-05-10T02:53:48.322Z,220.96
2023-05-10T02:54:48.351Z,222.30
2023-05-10T02:55:48.381Z,224.39
2023-05-10T02:56:48.356Z,222.91
2023-05-10T02:57:48.381Z,219.55
2023-05-10T02:58:48.392Z,219.26
2023-05-10T02:59:48.378Z,219.83
2023-05-10T03:00:48.460Z,217.93
2023-05-10T03:01:48.491Z,217.45
2023-05-10T03:02:48.517Z,218.14
2023-05-10T03:03:48.475Z,219.01
2023-05-10T03:04:48.570Z,218.48
2023-05-10T03:05:48.488Z,217.80
2023-05-10T03:06:48.506Z,220.26
2023-05-10T03:07:48.522Z,221.21
2023-05-10T03:08:48.526Z,220.01
2023-05-10T03:09:48.534Z,220.40
2023-05-10T03:10:48.520Z,220.11
2023-05-10T03:11:48.533Z,218.52
2023-05-10T03:12:48.561Z,219.00
2023-05-10T03:13:48.567Z,218.81
2023-05-10T03:14:48.566Z,217.80
2023-05-10T03:15:48.670Z,217.51
2023-05-10T03:16:48.654Z,218.20
2023-05-10T03:17:48.742Z,216.53
2023-05-10T03:18:48.736Z,215.65
2023-05-10T03:19:48.818Z,217.50
2023-05-10T03:20:48.831Z,217.55
2023-05-10T03:21:48.836Z,216.77
2023-05-10T03:22:48.845Z,217.18
2023-05-10T03:23:48.845Z,219.90
2023-05-10T03:24:48.851Z,219.38
2023-05-10T03:25:48.890Z,219.76
2023-05-10T03:26:48.893Z,218.90
2023-05-10T03:27:48.894Z,217.84
2023-05-10T03:28:48.893Z,218.53
2023-05-10T03:29:48.918Z,219.75
2023-05-10T03:30:48.936Z,221.68
2023-05-10T03:31:49.070Z,223.11
2023-05-10T03:32:48.975Z,224.18
2023-05-10T03:33:48.965Z,223.46
2023-05-10T03:34:48.961Z,225.02
2023-05-10T03:35:48.984Z,226.68
2023-05-10T03:36:48.977Z,226.55
2023-05-10T03:37:49.011Z,227.96
2023-05-10T03:38:49.018Z,227.95
2023-05-10T03:39:49.045Z,227.82
2023-05-10T03:40:49.034Z,227.66
2023-05-10T03:41:49.068Z,227.52
2023-05-10T03:42:49.058Z,228.03
2023-05-10T03:43:49.081Z,228.42
2023-05-10T03:44:49.065Z,226.77
2023-05-10T03:45:49.087Z,226.18
2023-05-10T03:46:49.113Z,224.92
2023-05-10T03:47:49.167Z,224.36
2023-05-10T03:48:49.114Z,223.46
2023-05-10T03:49:49.130Z,223.53
2023-05-10T03:50:49.136Z,223.67
2023-05-10T03:51:49.159Z,223.54
2023-05-10T03:52:49.206Z,221.44
2023-05-10T03:53:49.258Z,221.45
2023-05-10T03:54:49.324Z,221.23
2023-05-10T03:55:49.365Z,221.18
2023-05-10T03:56:49.382Z,220.89
2023-05-10T03:57:49.379Z,219.92
2023-05-10T03:58:49.406Z,219.59
2023-05-10T03:59:49.424Z,219.94
2023-05-10T04:00:49.435Z,219.61
2023-05-10T04:01:49.460Z,219.40
2023-05-10T04:02:49.728Z,219.34
2023-05-10T04:03:49.576Z,219.57
2023-05-10T04:04:49.492Z,219.05
2023-05-10T04:05:49.639Z,220.99
2023-05-10T04:06:49.508Z,219.12
2023-05-10T04:07:49.526Z,217.66
2023-05-10T04:08:49.556Z,213.31
2023-05-10T04:09:49.591Z,213.13
2023-05-10T04:10:49.617Z,214.00
2023-05-10T04:11:49.606Z,214.95
2023-05-10T04:12:49.664Z,212.42
2023-05-10T04:13:49.645Z,212.51
2023-05-10T04:14:49.667Z,210.05
2023-05-10T04:15:49.661Z,212.49
2023-05-10T04:16:49.725Z,213.71
2023-05-10T04:17:49.730Z,212.98
2023-05-10T04:18:49.715Z,214.00
2023-05-10T04:19:49.732Z,216.68
2023-05-10T04:20:49.728Z,216.96
2023-05-10T04:21:49.741Z,218.37
2023-05-10T04:22:49.773Z,217.02
2023-05-10T04:23:49.790Z,216.39
2023-05-10T04:24:49.790Z,215.57
2023-05-10T04:25:49.834Z,215.34
2023-05-10T04:26:49.823Z,214.58
2023-05-10T04:27:49.845Z,215.44
2023-05-10T04:28:49.861Z,215.12
2023-05-10T04:29:49.862Z,214.46
2023-05-10T04:30:49.947Z,214.92
2023-05-10T04:31:49.948Z,212.28
2023-05-10T04:32:50.022Z,213.46
2023-05-10T04:33:49.929Z,212.06
2023-05-10T04:34:49.935Z,210.03
2023-05-10T04:35:49.938Z,210.73
2023-05-10T04:36:49.962Z,209.79
2023-05-10T04:37:49.966Z,210.32
2023-05-10T04:38:49.995Z,210.58
2023-05-10T04:39:49.997Z,212.63
2023-05-10T04:40:50.022Z,214.84
2023-05-10T04:41:50.038Z,215.14
2023-05-10T04:42:50.044Z,215.28
2023-05-10T04:43:50.091Z,216.84
2023-05-10T04:44:50.076Z,219.60
2023-05-10T04:45:50.080Z,220.81
2023-05-10T04:46:50.101Z,222.80
2023-05-10T04:47:50.152Z,221.89
2023-05-10T04:48:50.127Z,221.50
2023-05-10T04:49:50.130Z,222.31
2023-05-10T04:50:50.163Z,224.02
2023-05-10T04:51:50.153Z,223.62
2023-05-10T04:52:50.173Z,225.24
2023-05-10T04:54:01.490Z,226.03
2023-05-10T04:54:51.193Z,226.07
2023-05-10T04:55:50.170Z,226.25
2023-05-10T04:56:50.190Z,226.08
2023-05-10T04:57:50.174Z,226.16
2023-05-10T04:58:50.154Z,220.41
2023-05-10T04:59:50.600Z,220.24
2023-05-10T05:00:50.166Z,236.54
2023-05-10T05:01:50.191Z,235.67
2023-05-10T05:02:50.234Z,238.03
2023-05-10T05:03:50.199Z,240.55
2023-05-10T05:04:50.122Z,243.21
2023-05-10T05:05:50.126Z,246.02
2023-05-10T05:06:51.712Z,250.14
2023-05-10T05:07:50.083Z,250.00
2023-05-10T05:08:50.097Z,250.32
2023-05-10T05:09:50.076Z,249.42
2023-05-10T05:10:50.079Z,247.77
2023-05-10T05:11:50.082Z,245.91
2023-05-10T05:12:50.088Z,245.66
2023-05-10T05:13:50.056Z,248.14
2023-05-10T05:14:50.068Z,250.00
2023-05-10T05:15:50.103Z,250.00
2023-05-10T05:16:50.048Z,246.51
2023-05-10T05:17:50.092Z,242.45
2023-05-10T05:18:50.022Z,241.91
2023-05-10T05:19:50.131Z,240.18
2023-05-10T05:20:50.006Z,237.99
2023-05-10T05:21:50.010Z,236.47
2023-05-10T05:22:50.010Z,236.49
2023-05-10T05:23:49.987Z,239.54
2023-05-10T05:24:50.000Z,241.40
2023-05-10T05:25:49.986Z,243.79
2023-05-10T05:26:49.956Z,244.94
2023-05-10T05:27:49.967Z,249.32
2023-05-10T05:28:49.947Z,250.47
2023-05-10T05:29:49.957Z,262.23
2023-05-10T05:30:49.935Z,269.47
2023-05-10T05:31:49.964Z,268.50
2023-05-10T05:32:49.980Z,262.16
2023-05-10T05:33:49.918Z,253.26
2023-05-10T05:34:49.942Z,249.73
2023-05-10T05:35:49.920Z,249.63
2023-05-10T05:36:49.903Z,249.54
2023-05-10T05:37:49.897Z,249.13
2023-05-10T05:38:49.912Z,248.71
2023-05-10T05:39:49.885Z,246.92
2023-05-10T05:40:49.916Z,249.99
2023-05-10T05:41:49.881Z,250.00
2023-05-10T05:42:49.922Z,250.11
2023-05-10T05:43:49.901Z,244.20
2023-05-10T05:44:49.884Z,237.40
2023-05-10T05:45:49.853Z,234.84
2023-05-10T05:46:49.836Z,226.61
2023-05-10T05:47:49.885Z,223.27
2023-05-10T05:48:49.841Z,218.14
2023-05-10T05:49:50.138Z,215.09
2023-05-10T05:50:49.803Z,206.80
2023-05-10T05:51:49.815Z,189.78
2023-05-10T05:52:49.799Z,195.43
2023-05-10T05:53:49.828Z,197.39
2023-05-10T05:54:49.796Z,200.41
2023-05-10T05:55:49.771Z,205.24
2023-05-10T05:56:49.762Z,205.47
2023-05-10T05:57:49.800Z,210.16
2023-05-10T05:58:49.755Z,214.38
2023-05-10T05:59:49.758Z,217.07
2023-05-10T06:00:49.737Z,223.16
2023-05-10T06:01:49.788Z,226.71
2023-05-10T06:02:49.794Z,232.46
2023-05-10T06:04:49.722Z,241.29
2023-05-10T06:05:49.710Z,245.51
2023-05-10T06:06:49.729Z,248.78
2023-05-10T06:07:49.842Z,249.62
2023-05-10T06:08:49.712Z,250.00
2023-05-10T06:09:49.757Z,248.53
2023-05-10T06:10:49.664Z,250.00
2023-05-10T06:11:49.661Z,249.59
2023-05-10T06:12:49.723Z,248.69
2023-05-10T06:13:49.675Z,247.82
2023-05-10T06:14:50.135Z,247.44
2023-05-10T06:15:49.643Z,250.00
2023-05-10T06:16:49.649Z,249.69
2023-05-10T06:17:49.675Z,248.82
2023-05-10T06:18:49.647Z,249.48
2023-05-10T06:19:50.148Z,250.00
2023-05-10T06:20:49.659Z,250.05
2023-05-10T06:21:50.412Z,250.00
2023-05-10T06:22:49.647Z,250.00
2023-05-10T06:23:49.658Z,249.24
2023-05-10T06:24:49.633Z,248.33
2023-05-10T06:25:49.673Z,244.61
2023-05-10T06:26:49.695Z,232.45
2023-05-10T06:27:53.501Z,215.00
2023-05-10T06:28:49.729Z,210.15
2023-05-10T06:29:52.244Z,207.19
2023-05-10T06:30:50.724Z,205.08
2023-05-10T06:31:49.708Z,199.84
2023-05-10T06:32:49.742Z,205.96
2023-05-10T06:33:49.803Z,211.81
2023-05-10T06:34:50.153Z,221.46
2023-05-10T06:35:49.875Z,227.63
2023-05-10T06:36:49.902Z,229.90
2023-05-10T06:37:49.976Z,233.86
2023-05-10T06:38:50.084Z,236.33
2023-05-10T06:39:50.148Z,237.96
2023-05-10T06:40:50.118Z,238.79
2023-05-10T06:41:50.190Z,240.70
2023-05-10T06:42:50.210Z,234.08
2023-05-10T06:43:50.276Z,232.67
2023-05-10T06:44:50.303Z,228.98
2023-05-10T06:45:50.356Z,226.84
2023-05-10T06:46:50.526Z,227.00
2023-05-10T06:47:50.449Z,230.74
2023-05-10T06:48:50.470Z,233.72
2023-05-10T06:49:50.493Z,237.42
2023-05-10T06:50:50.531Z,234.27
2023-05-10T06:51:50.581Z,235.67
2023-05-10T06:52:52.369Z,236.96
2023-05-10T06:53:50.679Z,237.93
2023-05-10T06:54:50.683Z,239.53
2023-05-10T06:55:50.698Z,241.11
2023-05-10T06:56:50.733Z,241.55
2023-05-10T06:57:50.733Z,241.92
2023-05-10T06:58:50.836Z,242.58
2023-05-10T06:59:50.747Z,244.03
2023-05-10T07:00:50.797Z,244.91
2023-05-10T07:01:50.870Z,245.36
2023-05-10T07:02:50.819Z,247.25
2023-05-10T07:03:50.770Z,248.46
2023-05-10T07:04:50.800Z,248.82
2023-05-10T07:05:50.779Z,249.18
2023-05-10T07:06:50.752Z,249.62
2023-05-10T07:07:50.740Z,249.62
2023-05-10T07:08:50.750Z,248.92
2023-05-10T07:09:50.790Z,249.48
2023-05-10T07:10:50.782Z,249.75
2023-05-10T07:11:50.783Z,250.00
2023-05-10T07:12:50.896Z,249.94
2023-05-10T07:13:50.850Z,249.11
2023-05-10T07:14:50.897Z,244.19
2023-05-10T07:15:50.959Z,247.45
2023-05-10T07:16:50.961Z,245.13
2023-05-10T07:17:51.099Z,244.17
2023-05-10T07:18:51.034Z,239.46
2023-05-10T07:19:51.053Z,240.37
2023-05-10T07:20:51.114Z,241.36
2023-05-10T07:21:51.126Z,240.25
2023-05-10T07:22:51.182Z,240.53
2023-05-10T07:23:51.208Z,243.70
2023-05-10T07:24:51.275Z,242.32
2023-05-10T07:25:51.321Z,241.64
2023-05-10T07:26:51.654Z,232.51
2023-05-10T07:27:51.487Z,229.50
2023-05-10T07:28:51.376Z,199.25
2023-05-10T07:29:51.420Z,182.92
2023-05-10T07:30:51.569Z,174.33
2023-05-10T07:31:51.662Z,173.73
2023-05-10T07:32:51.603Z,178.67
2023-05-10T07:33:51.618Z,182.98
2023-05-10T07:34:51.680Z,185.21
2023-05-10T07:35:51.728Z,185.33
2023-05-10T07:36:51.795Z,181.50
2023-05-10T07:37:51.855Z,182.96
2023-05-10T07:38:51.914Z,186.23
2023-05-10T07:39:51.968Z,191.25
2023-05-10T07:40:52.009Z,192.97
2023-05-10T07:41:52.056Z,199.26
2023-05-10T07:42:52.093Z,205.79
2023-05-10T07:43:52.134Z,214.94
2023-05-10T07:44:52.189Z,217.93
2023-05-10T07:45:54.025Z,219.63
2023-05-10T07:46:52.204Z,220.31
2023-05-10T07:47:52.203Z,220.26
2023-05-10T07:48:52.172Z,221.17
2023-05-10T07:49:52.159Z,219.29
2023-05-10T07:50:52.141Z,220.28
2023-05-10T07:51:52.141Z,221.42
2023-05-10T07:52:52.131Z,224.27
2023-05-10T07:53:52.129Z,225.35
2023-05-10T07:54:52.152Z,225.25
2023-05-10T07:55:52.132Z,226.50
2023-05-10T07:56:52.111Z,227.01
2023-05-10T07:57:52.124Z,224.93
2023-05-10T07:58:52.108Z,225.81
2023-05-10T07:59:52.179Z,227.26
2023-05-10T08:00:52.096Z,226.95
2023-05-10T08:01:52.090Z,225.82
2023-05-10T08:02:52.154Z,227.19
2023-05-10T08:03:52.214Z,228.24
2023-05-10T08:04:52.077Z,228.81
2023-05-10T08:05:52.049Z,230.18
2023-05-10T08:06:52.081Z,231.46
2023-05-10T08:07:52.053Z,231.23
2023-05-10T08:08:52.047Z,234.20
2023-05-10T08:09:52.027Z,234.41
2023-05-10T08:10:52.029Z,236.29
2023-05-10T08:11:52.018Z,238.97
2023-05-10T08:12:52.022Z,238.83
2023-05-10T08:13:52.041Z,241.25
2023-05-10T08:14:52.173Z,240.41
2023-05-10T08:15:52.054Z,240.55
2023-05-10T08:16:51.980Z,240.53
2023-05-10T08:17:52.043Z,240.76
2023-05-10T08:18:52.060Z,240.49
2023-05-10T08:19:52.176Z,241.81
2023-05-10T08:20:52.041Z,213.86
2023-05-10T08:21:52.112Z,199.02
2023-05-10T08:22:52.117Z,189.84
2023-05-10T08:23:52.107Z,180.40
2023-05-10T08:24:52.166Z,174.69
2023-05-10T08:25:52.230Z,165.25
2023-05-10T08:26:52.234Z,163.03
2023-05-10T08:27:52.258Z,162.55
2023-05-10T08:28:52.273Z,161.51
2023-05-10T08:29:52.303Z,161.29
2023-05-10T08:30:52.379Z,159.52
2023-05-10T08:31:52.525Z,164.48
2023-05-10T08:32:52.455Z,166.99
2023-05-10T08:33:52.483Z,169.71
2023-05-10T08:34:52.465Z,162.63
2023-05-10T08:35:52.508Z,160.66
2023-05-10T08:36:52.565Z,171.57
2023-05-10T08:37:52.598Z,180.94
2023-05-10T08:38:52.623Z,185.44
2023-05-10T08:39:52.682Z,192.74
2023-05-10T08:40:52.669Z,195.60
2023-05-10T08:41:52.704Z,196.69
2023-05-10T08:42:52.748Z,201.93
2023-05-10T08:43:52.772Z,206.69
2023-05-10T08:44:53.172Z,207.01
2023-05-10T08:45:52.791Z,207.18
2023-05-10T08:46:52.807Z,206.95
2023-05-10T08:47:52.899Z,207.68
2023-05-10T08:48:52.811Z,209.01
2023-05-10T08:49:52.852Z,208.57
2023-05-10T08:50:52.876Z,207.64
2023-05-10T08:51:52.955Z,207.22
2023-05-10T08:52:52.993Z,207.61
2023-05-10T08:53:53.043Z,209.25
2023-05-10T08:54:53.246Z,209.36
2023-05-10T08:55:53.182Z,210.01
2023-05-10T08:56:53.225Z,209.03
2023-05-10T08:57:53.300Z,209.29
2023-05-10T08:58:53.390Z,209.11
2023-05-10T08:59:53.412Z,210.03
2023-05-10T09:00:53.489Z,209.73
2023-05-10T09:01:53.490Z,209.65
2023-05-10T09:02:53.621Z,209.70
2023-05-10T09:03:53.648Z,208.79
2023-05-10T09:04:53.788Z,209.69
2023-05-10T09:05:54.204Z,211.37
2023-05-10T09:06:53.756Z,210.85
2023-05-10T09:07:53.779Z,211.44
2023-05-10T09:08:53.821Z,211.73
2023-05-10T09:09:53.871Z,212.02
2023-05-10T09:10:54.202Z,211.37
2023-05-10T09:11:53.997Z,211.79
2023-05-10T09:12:54.044Z,211.62
2023-05-10T09:13:54.096Z,210.82
2023-05-10T09:14:54.106Z,211.78
2023-05-10T09:15:54.202Z,212.57
2023-05-10T09:16:54.255Z,212.98
2023-05-10T09:17:54.274Z,212.60
2023-05-10T09:18:54.356Z,212.63
2023-05-10T09:19:54.320Z,211.25
2023-05-10T09:20:54.701Z,211.00
2023-05-10T09:21:54.431Z,211.65
2023-05-10T09:22:54.473Z,211.81
2023-05-10T09:23:54.516Z,212.76
2023-05-10T09:24:54.542Z,212.00
2023-05-10T09:25:54.701Z,212.05
2023-05-10T09:26:54.628Z,213.30
2023-05-10T09:27:54.689Z,212.69
2023-05-10T09:28:54.734Z,212.60
2023-05-10T09:29:54.760Z,213.28
2023-05-10T09:30:54.884Z,214.94
2023-05-10T09:31:54.885Z,195.39
2023-05-10T09:32:54.940Z,201.75
2023-05-10T09:33:54.971Z,160.53
2023-05-10T09:34:54.960Z,137.52
2023-05-10T09:35:55.206Z,123.85
2023-05-10T09:36:54.980Z,113.37
2023-05-10T09:37:55.012Z,103.66
2023-05-10T09:38:55.018Z,94.99
2023-05-10T09:39:55.056Z,93.86
2023-05-10T09:40:55.216Z,95.60
2023-05-10T09:41:55.107Z,95.56
2023-05-10T09:42:55.145Z,97.87
2023-05-10T09:43:55.186Z,97.52
2023-05-10T09:44:55.227Z,98.16
2023-05-10T09:45:55.733Z,104.68
2023-05-10T09:46:55.248Z,109.91
2023-05-10T09:47:55.260Z,115.04
2023-05-10T09:48:55.236Z,120.21
2023-05-10T09:49:55.257Z,125.04
2023-05-10T09:50:55.268Z,135.10
2023-05-10T09:51:55.291Z,144.15
2023-05-10T09:52:55.320Z,153.64
2023-05-10T09:53:55.311Z,166.02
2023-05-10T09:54:55.310Z,181.46
2023-05-10T09:55:55.345Z,194.59
2023-05-10T09:56:55.408Z,192.51
2023-05-10T09:57:55.474Z,187.75
2023-05-10T09:58:55.525Z,191.78
2023-05-10T09:59:55.622Z,194.86
2023-05-10T10:00:55.635Z,199.69
2023-05-10T10:01:55.798Z,203.01
2023-05-10T10:02:55.773Z,202.39
2023-05-10T10:03:55.772Z,203.37
2023-05-10T10:04:55.838Z,205.27
2023-05-10T10:05:55.841Z,204.62
2023-05-10T10:06:55.871Z,205.21
2023-05-10T10:07:56.159Z,205.17
2023-05-10T10:08:56.807Z,207.37
2023-05-10T10:09:55.927Z,207.00
2023-05-10T10:10:55.965Z,209.10
2023-05-10T10:11:55.964Z,205.51
2023-05-10T10:12:56.010Z,202.65
2023-05-10T10:13:55.991Z,202.13
2023-05-10T10:14:56.024Z,202.98
2023-05-10T10:15:56.231Z,206.53
2023-05-10T10:17:07.305Z,210.38
2023-05-10T10:17:57.147Z,210.47
2023-05-10T10:18:56.090Z,210.53
2023-05-10T10:19:56.025Z,198.12
2023-05-10T10:20:56.016Z,190.35
2023-05-10T10:21:56.032Z,195.52
2023-05-10T10:22:56.029Z,191.42
2023-05-10T10:23:56.014Z,196.19
2023-05-10T10:24:56.008Z,196.36
2023-05-10T10:25:56.215Z,203.27
2023-05-10T10:26:55.994Z,211.95
2023-05-10T10:27:55.991Z,217.70
2023-05-10T10:28:55.964Z,222.01
2023-05-10T10:29:55.958Z,224.62
2023-05-10T10:30:55.977Z,226.97
2023-05-10T10:31:56.028Z,226.56
2023-05-10T10:32:56.002Z,227.60
2023-05-10T10:33:55.936Z,219.56
2023-05-10T10:34:55.933Z,216.01
2023-05-10T10:35:56.251Z,221.49
2023-05-10T10:36:55.933Z,224.20
2023-05-10T10:37:55.921Z,227.45
2023-05-10T10:38:55.920Z,227.66
2023-05-10T10:39:55.912Z,229.02
2023-05-10T10:40:55.906Z,229.08
2023-05-10T10:41:55.895Z,214.53
2023-05-10T10:42:55.911Z,224.39
2023-05-10T10:43:55.894Z,235.46
2023-05-10T10:44:55.893Z,232.84
2023-05-10T10:45:55.881Z,233.41
2023-05-10T10:46:55.993Z,234.41
2023-05-10T10:47:56.057Z,234.85
2023-05-10T10:48:56.073Z,233.72
2023-05-10T10:49:56.087Z,234.61
2023-05-10T10:50:56.125Z,236.67
2023-05-10T10:51:56.150Z,239.68
2023-05-10T10:52:56.203Z,238.33
2023-05-10T10:53:56.210Z,241.97
2023-05-10T10:54:56.221Z,243.92
2023-05-10T10:55:56.233Z,244.82
2023-05-10T10:56:56.262Z,234.24
2023-05-10T10:57:56.321Z,235.47
2023-05-10T10:58:56.390Z,237.14
2023-05-10T10:59:56.468Z,234.90
2023-05-10T11:00:56.557Z,223.80
2023-05-10T11:01:56.574Z,221.47
2023-05-10T11:02:56.666Z,199.07
2023-05-10T11:03:56.743Z,184.39
2023-05-10T11:04:56.769Z,186.79
2023-05-10T11:05:56.828Z,184.39
2023-05-10T11:06:56.902Z,183.88
2023-05-10T11:07:56.961Z,196.20
2023-05-10T11:08:57.017Z,191.43
2023-05-10T11:09:57.057Z,182.68
2023-05-10T11:10:57.123Z,180.66
2023-05-10T11:11:57.182Z,184.40
2023-05-10T11:12:57.239Z,192.16
2023-05-10T11:13:57.298Z,190.96
2023-05-10T11:14:57.374Z,199.74
2023-05-10T11:15:57.441Z,178.80
2023-05-10T11:16:57.502Z,167.51
2023-05-10T11:17:57.509Z,156.12
2023-05-10T11:18:57.512Z,144.79
2023-05-10T11:19:57.466Z,143.63
2023-05-10T11:20:57.477Z,135.29
2023-05-10T11:21:57.472Z,139.00
2023-05-10T11:22:57.487Z,140.70
2023-05-10T11:23:57.556Z,136.93
2023-05-10T11:24:57.558Z,132.89
2023-05-10T11:25:57.609Z,121.89
2023-05-10T11:26:57.595Z,120.54
2023-05-10T11:27:57.603Z,118.46
2023-05-10T11:28:57.639Z,106.84
2023-05-10T11:29:57.655Z,102.64
2023-05-10T11:30:57.743Z,95.00
2023-05-10T11:31:57.755Z,90.39
2023-05-10T11:32:57.838Z,91.32
2023-05-10T11:33:57.815Z,93.57
2023-05-10T11:34:57.876Z,99.22
2023-05-10T11:35:57.914Z,102.43
2023-05-10T11:36:57.952Z,104.19
2023-05-10T11:37:57.990Z,109.30
2023-05-10T11:38:58.009Z,112.57
2023-05-10T11:39:58.051Z,117.12
2023-05-10T11:40:58.113Z,123.37
2023-05-10T11:41:58.171Z,126.95
2023-05-10T11:42:58.190Z,128.11
2023-05-10T11:43:58.281Z,132.21
2023-05-10T11:44:58.279Z,138.47
2023-05-10T11:45:58.385Z,141.52
2023-05-10T11:46:58.347Z,143.51
2023-05-10T11:47:58.425Z,148.28
2023-05-10T11:48:58.437Z,150.07
2023-05-10T11:49:58.480Z,148.41
2023-05-10T11:50:58.538Z,149.25
2023-05-10T11:51:58.554Z,150.83
2023-05-10T11:52:58.597Z,154.74
2023-05-10T11:53:58.612Z,157.63
2023-05-10T11:54:58.662Z,159.85
2023-05-10T11:55:58.691Z,162.09
2023-05-10T11:56:58.749Z,165.68
2023-05-10T11:57:58.758Z,168.04
2023-05-10T11:58:58.866Z,167.77
2023-05-10T11:59:58.860Z,168.94
2023-05-10T12:00:58.904Z,169.25
2023-05-10T12:01:58.928Z,171.55
2023-05-10T12:02:59.059Z,172.38
2023-05-10T12:03:59.205Z,166.72
2023-05-10T12:04:59.103Z,161.68
2023-05-10T12:05:59.270Z,158.23
2023-05-10T12:06:59.133Z,153.63
2023-05-10T12:07:59.158Z,150.44
2023-05-10T12:08:59.231Z,147.08
2023-05-10T12:09:59.251Z,145.95
2023-05-10T12:10:59.765Z,143.74
2023-05-10T12:11:59.754Z,142.45
2023-05-10T12:12:59.408Z,142.18
2023-05-10T12:13:59.445Z,141.46
2023-05-10T12:14:59.499Z,141.95
2023-05-10T12:15:59.564Z,142.28
2023-05-10T12:16:59.756Z,145.81
2023-05-10T12:17:59.660Z,147.03
2023-05-10T12:18:59.729Z,139.39
2023-05-10T12:19:59.727Z,139.89
2023-05-10T12:20:59.772Z,141.38
2023-05-10T12:21:59.807Z,139.74
2023-05-10T12:23:00.699Z,139.80
2023-05-10T12:23:59.921Z,143.93
2023-05-10T12:24:59.965Z,146.55
2023-05-10T12:26:00.034Z,148.54
2023-05-10T12:27:00.079Z,153.53
2023-05-10T12:28:00.131Z,155.00
2023-05-10T12:29:00.175Z,157.98
2023-05-10T12:30:00.219Z,162.54